Impacts METAR Board INFO
IDs:

KLAS - Las Vegas/McCarran I, NV, US

Updated at: 1753 UTC 18 Nov 2017
Potential Impact None Slight Moderate High
Time18/05Z 18/06Z 18/07Z 18/08Z 18/09Z 18/10Z 18/11Z 18/12Z 18/13Z 18/14Z 18/15Z 18/16Z 18/17Z
VIS10 10 10 10 10 10 10 10 10 10 10 10 10
CIG-- -- -- -- -- -- -- -- -- -- -- -- --
CoverFEWFEWFEWCLRCLRCLRCLRCLRCLRCLRCLRCLRCLR
FltCatVFRVFRVFRVFRVFRVFRVFRVFRVFRVFRVFRVFRVFR
WX--------------------------
WDir40503503603603503403501010201500
WSpd23 18 23 15 17 14 15 12 11 9 4 6 4
WGst29 26 30 30 27 -- 25 -- -- -- -- -- --
Raw hourly METARs
KLAS 180456Z COR 04023G29KT 10SM FEW090 16/M08 A3014 RMK AO2 PK WND 33036/0405 WSHFT 0419 SLP194 OCNL VCBLDU T01561078
KLAS 180556Z 05018G26KT 10SM FEW090 14/M09 A3019 RMK AO2 PK WND 04031/0458 SLP210 OCNL VCBLDU T01441094 10239 20139 51063
KLAS 180656Z 35023G30KT 10SM FEW090 14/M11 A3021 RMK AO2 PK WND 02030/0640 SLP219 OCNL VCBLDU T01391106
KLAS 180756Z 36015G30KT 10SM CLR 13/M11 A3025 RMK AO2 PK WND 35030/0753 SLP232 T01331106 402500133
KLAS 180856Z 36017G27KT 10SM CLR 12/M11 A3026 RMK AO2 PK WND 35027/0806 SLP236 T01221106 51025
KLAS 180956Z 35014KT 10SM CLR 12/M11 A3028 RMK AO2 PK WND 34030/0919 SLP242 T01171106
KLAS 181056Z 34015G25KT 10SM CLR 11/M10 A3029 RMK AO2 SLP244 T01111100
KLAS 181156Z 35012KT 10SM CLR 10/M09 A3030 RMK AO2 WSHFT 1117 SLP250 T01001094 10144 20100 51010
KLAS 181256Z 01011KT 10SM CLR 09/M09 A3031 RMK AO2 SLP256 T00941089
KLAS 181356Z 01009KT 10SM CLR 09/M09 A3033 RMK AO2 SLP263 T00891089
KLAS 181456Z 02004KT 10SM CLR 09/M08 A3035 RMK AO2 SLP272 T00891083 53018
KLAS 181556Z 15006KT 10SM CLR 10/M08 A3037 RMK AO2 SLP278 T01001083
KLAS 181656Z VRB04KT 10SM CLR 11/M09 A3038 RMK AO2 SLP282 T01111094